Airfield :







YOU CAN JOIN US ON...

 
LOGIN :

Register | Disclaimer

   EN    FR    IT 

 









Legend :    VFR   Marginal VFR   IFR   Intensive IFR   Very Intensive IFR
Visi :
Ceiling :
>= 8 km
>= 3000ft
5 to 8 km
1000 to 3000 ft
1500m to 5 km
500 to 1000 ft
800 to 1500m
200 to 500 ft
< 800m
< 200 ft
Symbols :   Thunderstorms  Fog  Heavy snow  Heavy precipitations  Wind > 20 kt






- Airport Elevation : 626 ft


KCAR - Caribou Municipal

CURRENT METAR :
  • 260754Z AUTO 07008KT 9SM -FZRA OVC024 M02/M04 A2992 RMK AO2 UPE0656B25E26FZRAB0656E25B26 SLP144 P0003 I1002 T10221039

EXPIRED METARs :
  • 260706Z AUTO 07005KT 10SM -FZRA SCT009 BKN026 OVC039 M02/M04 A2995 RMK AO2 UPE0656FZRAB0656 P0001 I1000 T10221044
  • 260554Z AUTO 07005KT 10SM OVC006 M03/M04 A3000 RMK AO2 CIG 003V009 SLP171 I6001 T10331044 11022 21033 56036
  • 260550Z AUTO 07004KT 10SM OVC006 M03/M04 A3000 RMK AO2 CIG 003V009
  • 260516Z AUTO 06006KT 4SM BR OVC002 M03/M04 A3003 RMK AO2 T10281039

TAF KCAR
Valid from the 26 at 06:00 until the 27 at 06:00 UTC


260524Z 2606/2706 08007KT 3SM -PL BR OVC005
FM261000 10009KT 3SM -FZRAPL OVC006 WS020/15035KT
FM262000 15004KT 5SM -RA OVC004
FM270300 26005KT 2SM -SNRA OVC005
FM270400 26005KT 2SM -SN OVC008



MET'MAP, your aeronautical weather chart ! - Copyright ORBIFLY December 2007 - Disclaimer

ORBIFLY MET'MAP TEAM :

Programming & Development : Alexandra Zaïnal
Concept & original design : Baudouin d'Aumeries
Assistance for programming : Marc-Olivier Méhu
Technical & hardware support : Manuel Goepfert

Contact : metmap@orbifly.com




SOURCES & CREDITS :

   NOAA